sensor_id;sensor_type;location;lat;lon;timestamp;pressure;altitude;pressure_sealevel;temperature;humidity
11678;BME280;5895;41.950;24.372;2022-07-18T00:01:23;87566.41;;;16.39;46.94
11678;BME280;5895;41.950;24.372;2022-07-18T00:03:51;87563.22;;;16.37;46.84
11678;BME280;5895;41.950;24.372;2022-07-18T00:06:19;87561.88;;;16.34;46.54
11678;BME280;5895;41.950;24.372;2022-07-18T00:08:46;87564.97;;;16.31;46.82
11678;BME280;5895;41.950;24.372;2022-07-18T00:11:13;87560.78;;;16.30;46.61
11678;BME280;5895;41.950;24.372;2022-07-18T00:13:41;87559.44;;;16.28;46.69
11678;BME280;5895;41.950;24.372;2022-07-18T00:16:08;87559.13;;;16.24;47.10
11678;BME280;5895;41.950;24.372;2022-07-18T00:18:35;87551.50;;;16.23;47.08
11678;BME280;5895;41.950;24.372;2022-07-18T00:21:04;87546.28;;;16.23;47.13
11678;BME280;5895;41.950;24.372;2022-07-18T00:23:32;87556.97;;;16.21;47.00
11678;BME280;5895;41.950;24.372;2022-07-18T00:25:59;87549.63;;;16.18;47.06
11678;BME280;5895;41.950;24.372;2022-07-18T00:28:26;87545.88;;;16.14;47.20
11678;BME280;5895;41.950;24.372;2022-07-18T00:30:53;87546.59;;;16.09;47.13
11678;BME280;5895;41.950;24.372;2022-07-18T00:33:21;87554.69;;;16.08;47.36
11678;BME280;5895;41.950;24.372;2022-07-18T00:35:48;87557.00;;;16.04;47.13
11678;BME280;5895;41.950;24.372;2022-07-18T00:38:17;87553.03;;;16.02;47.27
11678;BME280;5895;41.950;24.372;2022-07-18T00:40:44;87545.66;;;15.99;47.48
11678;BME280;5895;41.950;24.372;2022-07-18T00:43:12;87547.72;;;15.97;47.20
11678;BME280;5895;41.950;24.372;2022-07-18T00:45:43;87554.53;;;15.98;47.26
11678;BME280;5895;41.950;24.372;2022-07-18T00:48:11;87554.00;;;15.96;47.06
11678;BME280;5895;41.950;24.372;2022-07-18T00:50:39;87557.09;;;15.93;46.98
11678;BME280;5895;41.950;24.372;2022-07-18T00:53:07;87562.31;;;15.93;46.86
11678;BME280;5895;41.950;24.372;2022-07-18T00:55:39;87563.59;;;15.90;46.86
11678;BME280;5895;41.950;24.372;2022-07-18T00:58:07;87565.66;;;15.88;47.06
11678;BME280;5895;41.950;24.372;2022-07-18T01:00:35;87555.66;;;15.85;47.09
11678;BME280;5895;41.950;24.372;2022-07-18T01:03:19;87558.53;;;15.83;47.16
11678;BME280;5895;41.950;24.372;2022-07-18T01:05:47;87557.41;;;15.79;47.01
11678;BME280;5895;41.950;24.372;2022-07-18T01:08:14;87556.88;;;15.77;46.86
11678;BME280;5895;41.950;24.372;2022-07-18T01:10:43;87559.94;;;15.74;47.00
11678;BME280;5895;41.950;24.372;2022-07-18T01:13:10;87556.78;;;15.72;47.20
11678;BME280;5895;41.950;24.372;2022-07-18T01:15:38;87558.84;;;15.70;47.32
11678;BME280;5895;41.950;24.372;2022-07-18T01:18:05;87565.09;;;15.69;47.04
11678;BME280;5895;41.950;24.372;2022-07-18T01:20:34;87549.88;;;15.66;47.40
11678;BME280;5895;41.950;24.372;2022-07-18T01:23:01;87558.19;;;15.63;47.79
11678;BME280;5895;41.950;24.372;2022-07-18T01:25:28;87551.03;;;15.58;47.42
11678;BME280;5895;41.950;24.372;2022-07-18T01:27:56;87558.56;;;15.55;47.36
11678;BME280;5895;41.950;24.372;2022-07-18T01:30:24;87554.06;;;15.50;47.56
11678;BME280;5895;41.950;24.372;2022-07-18T01:32:55;87551.34;;;15.45;47.73
11678;BME280;5895;41.950;24.372;2022-07-18T01:35:23;87548.97;;;15.44;47.44
11678;BME280;5895;41.950;24.372;2022-07-18T01:37:53;87545.78;;;15.42;47.87
11678;BME280;5895;41.950;24.372;2022-07-18T01:40:21;87551.50;;;15.39;47.45
11678;BME280;5895;41.950;24.372;2022-07-18T01:42:49;87548.31;;;15.37;47.57
11678;BME280;5895;41.950;24.372;2022-07-18T01:45:17;87545.16;;;15.34;47.86
11678;BME280;5895;41.950;24.372;2022-07-18T01:47:45;87549.03;;;15.32;47.90
11678;BME280;5895;41.950;24.372;2022-07-18T01:50:15;87541.66;;;15.29;48.10
11678;BME280;5895;41.950;24.372;2022-07-18T01:52:42;87544.97;;;15.24;48.19
11678;BME280;5895;41.950;24.372;2022-07-18T01:55:11;87542.84;;;15.21;48.17
11678;BME280;5895;41.950;24.372;2022-07-18T01:57:38;87549.31;;;15.19;48.25
11678;BME280;5895;41.950;24.372;2022-07-18T02:00:09;87551.13;;;15.18;47.61
11678;BME280;5895;41.950;24.372;2022-07-18T02:02:37;87546.06;;;15.12;47.68
11678;BME280;5895;41.950;24.372;2022-07-18T02:05:05;87548.34;;;15.08;47.74
11678;BME280;5895;41.950;24.372;2022-07-18T02:07:35;87549.38;;;15.07;47.62
11678;BME280;5895;41.950;24.372;2022-07-18T02:10:06;87552.94;;;15.01;47.62
11678;BME280;5895;41.950;24.372;2022-07-18T02:12:35;87552.81;;;14.96;46.94
11678;BME280;5895;41.950;24.372;2022-07-18T02:15:03;87552.28;;;14.94;47.24
11678;BME280;5895;41.950;24.372;2022-07-18T02:17:30;87560.13;;;14.94;47.49
11678;BME280;5895;41.950;24.372;2022-07-18T02:19:58;87569.44;;;14.90;47.25
11678;BME280;5895;41.950;24.372;2022-07-18T02:22:25;87563.66;;;14.88;47.36
11678;BME280;5895;41.950;24.372;2022-07-18T02:24:52;87555.03;;;14.87;47.21
11678;BME280;5895;41.950;24.372;2022-07-18T02:27:20;87554.22;;;14.87;47.05
11678;BME280;5895;41.950;24.372;2022-07-18T02:29:49;87544.06;;;14.73;46.84
11678;BME280;5895;41.950;24.372;2022-07-18T02:32:17;87568.78;;;14.82;47.11
11678;BME280;5895;41.950;24.372;2022-07-18T02:34:45;87565.59;;;14.80;46.89
11678;BME280;5895;41.950;24.372;2022-07-18T02:37:12;87573.69;;;14.79;47.22
11678;BME280;5895;41.950;24.372;2022-07-18T02:39:39;87565.75;;;14.74;47.84
11678;BME280;5895;41.950;24.372;2022-07-18T02:42:07;87563.38;;;14.72;47.54
11678;BME280;5895;41.950;24.372;2022-07-18T02:44:34;87569.03;;;14.69;47.12
11678;BME280;5895;41.950;24.372;2022-07-18T02:47:03;87578.16;;;14.67;47.72
11678;BME280;5895;41.950;24.372;2022-07-18T02:49:31;87584.06;;;14.62;47.52
11678;BME280;5895;41.950;24.372;2022-07-18T02:52:00;87577.38;;;14.54;47.96
11678;BME280;5895;41.950;24.372;2022-07-18T02:54:29;87568.28;;;14.45;48.09
11678;BME280;5895;41.950;24.372;2022-07-18T02:56:56;87580.97;;;14.42;47.39
11678;BME280;5895;41.950;24.372;2022-07-18T02:59:24;87572.84;;;14.38;47.67
11678;BME280;5895;41.950;24.372;2022-07-18T03:01:52;87588.16;;;14.35;47.69
11678;BME280;5895;41.950;24.372;2022-07-18T03:04:21;87584.31;;;14.25;48.21
11678;BME280;5895;41.950;24.372;2022-07-18T03:06:49;87578.88;;;14.15;48.57
11678;BME280;5895;41.950;24.372;2022-07-18T03:09:17;87574.00;;;14.07;48.11
11678;BME280;5895;41.950;24.372;2022-07-18T03:11:44;87571.50;;;14.00;48.39
11678;BME280;5895;41.950;24.372;2022-07-18T03:14:11;87571.16;;;13.97;48.51
11678;BME280;5895;41.950;24.372;2022-07-18T03:16:39;87567.53;;;13.98;48.11
11678;BME280;5895;41.950;24.372;2022-07-18T03:19:06;87568.34;;;13.98;47.46
11678;BME280;5895;41.950;24.372;2022-07-18T03:21:35;87560.72;;;13.97;46.67
11678;BME280;5895;41.950;24.372;2022-07-18T03:24:03;87556.63;;;14.01;47.19
11678;BME280;5895;41.950;24.372;2022-07-18T03:26:30;87562.44;;;14.03;46.86
11678;BME280;5895;41.950;24.372;2022-07-18T03:28:57;87557.00;;;14.05;46.37
11678;BME280;5895;41.950;24.372;2022-07-18T03:31:25;87563.56;;;14.07;46.37
11678;BME280;5895;41.950;24.372;2022-07-18T03:33:52;87558.13;;;14.09;45.61
11678;BME280;5895;41.950;24.372;2022-07-18T03:36:19;87559.47;;;14.11;46.30
11678;BME280;5895;41.950;24.372;2022-07-18T03:38:48;87558.44;;;14.12;45.05
11678;BME280;5895;41.950;24.372;2022-07-18T03:41:15;87559.03;;;14.14;45.82
11678;BME280;5895;41.950;24.372;2022-07-18T03:43:42;87566.38;;;14.17;45.58
11678;BME280;5895;41.950;24.372;2022-07-18T03:46:10;87571.16;;;14.20;45.57
11678;BME280;5895;41.950;24.372;2022-07-18T03:48:37;87576.38;;;14.20;45.36
11678;BME280;5895;41.950;24.372;2022-07-18T03:51:04;87574.78;;;14.19;44.38
11678;BME280;5895;41.950;24.372;2022-07-18T03:53:32;87577.16;;;14.21;45.04
11678;BME280;5895;41.950;24.372;2022-07-18T03:56:01;87570.13;;;14.21;43.88
11678;BME280;5895;41.950;24.372;2022-07-18T03:58:28;87575.34;;;14.21;44.46
11678;BME280;5895;41.950;24.372;2022-07-18T04:00:55;87569.09;;;14.22;43.99
11678;BME280;5895;41.950;24.372;2022-07-18T04:03:23;87570.56;;;14.18;43.97
11678;BME280;5895;41.950;24.372;2022-07-18T04:05:50;87573.06;;;14.25;43.91
11678;BME280;5895;41.950;24.372;2022-07-18T04:08:17;87574.88;;;14.24;44.05
11678;BME280;5895;41.950;24.372;2022-07-18T04:10:44;87576.25;;;14.27;44.84
11678;BME280;5895;41.950;24.372;2022-07-18T04:13:13;87578.63;;;14.28;44.94
11678;BME280;5895;41.950;24.372;2022-07-18T04:15:41;87578.63;;;14.28;44.07
11678;BME280;5895;41.950;24.372;2022-07-18T04:18:08;87582.81;;;14.29;44.15
11678;BME280;5895;41.950;24.372;2022-07-18T04:20:36;87589.06;;;14.28;44.80
11678;BME280;5895;41.950;24.372;2022-07-18T04:23:05;87584.31;;;14.25;44.57
11678;BME280;5895;41.950;24.372;2022-07-18T04:25:34;87589.53;;;14.25;44.70
11678;BME280;5895;41.950;24.372;2022-07-18T04:28:02;87589.97;;;14.22;44.76
11678;BME280;5895;41.950;24.372;2022-07-18T04:30:32;87593.63;;;14.21;44.73
11678;BME280;5895;41.950;24.372;2022-07-18T04:33:01;87581.91;;;14.24;44.94
11678;BME280;5895;41.950;24.372;2022-07-18T04:35:29;87586.34;;;14.23;44.71
11678;BME280;5895;41.950;24.372;2022-07-18T04:37:57;87586.34;;;14.23;44.85
11678;BME280;5895;41.950;24.372;2022-07-18T04:40:24;87583.97;;;14.22;44.79
11678;BME280;5895;41.950;24.372;2022-07-18T04:42:51;87582.16;;;14.22;45.16
11678;BME280;5895;41.950;24.372;2022-07-18T04:45:20;87586.59;;;14.22;45.19
11678;BME280;5895;41.950;24.372;2022-07-18T04:47:50;87583.75;;;14.23;44.73
11678;BME280;5895;41.950;24.372;2022-07-18T04:50:18;87581.91;;;14.24;45.08
11678;BME280;5895;41.950;24.372;2022-07-18T04:52:46;87580.09;;;14.24;44.80
11678;BME280;5895;41.950;24.372;2022-07-18T04:55:15;87576.38;;;14.32;44.44
11678;BME280;5895;41.950;24.372;2022-07-18T04:57:43;87578.63;;;14.40;44.20
11678;BME280;5895;41.950;24.372;2022-07-18T05:00:12;87578.63;;;14.52;43.97
11678;BME280;5895;41.950;24.372;2022-07-18T05:02:40;87580.41;;;14.63;44.00
11678;BME280;5895;41.950;24.372;2022-07-18T05:05:10;87582.19;;;14.74;43.72
11678;BME280;5895;41.950;24.372;2022-07-18T05:07:38;87577.97;;;14.85;43.66
11678;BME280;5895;41.950;24.372;2022-07-18T05:10:07;87573.72;;;14.96;43.48
11678;BME280;5895;41.950;24.372;2022-07-18T05:12:35;87568.69;;;15.06;43.49
11678;BME280;5895;41.950;24.372;2022-07-18T05:15:04;87575.16;;;15.15;43.37
11678;BME280;5895;41.950;24.372;2022-07-18T05:17:32;87576.34;;;15.24;43.45
11678;BME280;5895;41.950;24.372;2022-07-18T05:19:59;87574.94;;;15.33;43.51
11678;BME280;5895;41.950;24.372;2022-07-18T05:22:28;87573.50;;;15.43;43.58
11678;BME280;5895;41.950;24.372;2022-07-18T05:24:55;87583.59;;;15.51;43.84
11678;BME280;5895;41.950;24.372;2022-07-18T05:27:22;87584.25;;;15.58;43.57
11678;BME280;5895;41.950;24.372;2022-07-18T05:29:50;87583.91;;;15.66;43.20
11678;BME280;5895;41.950;24.372;2022-07-18T05:32:17;87590.81;;;15.72;43.00
11678;BME280;5895;41.950;24.372;2022-07-18T05:34:45;87590.88;;;15.77;43.01
11678;BME280;5895;41.950;24.372;2022-07-18T05:37:12;87594.13;;;15.84;42.84
11678;BME280;5895;41.950;24.372;2022-07-18T05:39:42;87582.16;;;15.89;42.38
11678;BME280;5895;41.950;24.372;2022-07-18T05:42:09;87596.91;;;15.95;42.74
11678;BME280;5895;41.950;24.372;2022-07-18T05:44:36;87593.09;;;16.02;42.81
11678;BME280;5895;41.950;24.372;2022-07-18T05:47:04;87599.75;;;16.10;42.20
11678;BME280;5895;41.950;24.372;2022-07-18T05:49:31;87595.16;;;16.17;42.51
11678;BME280;5895;41.950;24.372;2022-07-18T05:51:58;87593.94;;;16.25;42.85
11678;BME280;5895;41.950;24.372;2022-07-18T05:54:25;87594.28;;;16.28;42.61
11678;BME280;5895;41.950;24.372;2022-07-18T05:56:54;87588.88;;;16.35;42.48
11678;BME280;5895;41.950;24.372;2022-07-18T05:59:22;87593.69;;;16.43;42.46
11678;BME280;5895;41.950;24.372;2022-07-18T06:01:49;87591.47;;;16.52;42.81
11678;BME280;5895;41.950;24.372;2022-07-18T06:04:16;87588.41;;;16.60;42.66
11678;BME280;5895;41.950;24.372;2022-07-18T06:06:43;87595.31;;;16.66;42.60
11678;BME280;5895;41.950;24.372;2022-07-18T06:09:11;87603.31;;;16.76;42.59
11678;BME280;5895;41.950;24.372;2022-07-18T06:11:39;87591.41;;;16.85;42.32
11678;BME280;5895;41.950;24.372;2022-07-18T06:14:08;87592.50;;;16.89;41.98
11678;BME280;5895;41.950;24.372;2022-07-18T06:16:35;87589.91;;;16.95;42.62
11678;BME280;5895;41.950;24.372;2022-07-18T06:19:03;87600.00;;;17.03;42.47
11678;BME280;5895;41.950;24.372;2022-07-18T06:21:30;87591.16;;;17.09;42.27
11678;BME280;5895;41.950;24.372;2022-07-18T06:23:58;87587.28;;;17.16;42.50
11678;BME280;5895;41.950;24.372;2022-07-18T06:26:25;87581.06;;;17.23;42.20
11678;BME280;5895;41.950;24.372;2022-07-18T06:28:52;87581.38;;;17.26;42.44
11678;BME280;5895;41.950;24.372;2022-07-18T06:31:21;87583.06;;;17.37;41.87
11678;BME280;5895;41.950;24.372;2022-07-18T06:33:48;87578.91;;;17.41;42.20
11678;BME280;5895;41.950;24.372;2022-07-18T06:36:16;87584.75;;;17.49;42.20
11678;BME280;5895;41.950;24.372;2022-07-18T06:38:43;87587.47;;;17.59;42.55
11678;BME280;5895;41.950;24.372;2022-07-18T06:41:10;87587.53;;;17.64;42.27
11678;BME280;5895;41.950;24.372;2022-07-18T06:43:38;87586.06;;;17.73;42.37
11678;BME280;5895;41.950;24.372;2022-07-18T06:46:06;87591.63;;;17.77;41.78
11678;BME280;5895;41.950;24.372;2022-07-18T06:48:35;87582.25;;;17.86;41.64
11678;BME280;5895;41.950;24.372;2022-07-18T06:51:03;87587.56;;;17.91;41.87
11678;BME280;5895;41.950;24.372;2022-07-18T06:53:31;87582.34;;;17.96;41.93
11678;BME280;5895;41.950;24.372;2022-07-18T06:55:59;87588.44;;;18.07;41.99
11678;BME280;5895;41.950;24.372;2022-07-18T06:58:28;87585.38;;;18.15;41.68
11678;BME280;5895;41.950;24.372;2022-07-18T07:00:56;87594.13;;;18.26;41.59
11678;BME280;5895;41.950;24.372;2022-07-18T07:03:24;87588.69;;;18.37;42.19
11678;BME280;5895;41.950;24.372;2022-07-18T07:05:53;87587.72;;;18.48;41.63
11678;BME280;5895;41.950;24.372;2022-07-18T07:08:20;87596.44;;;18.54;41.89
11678;BME280;5895;41.950;24.372;2022-07-18T07:10:47;87597.25;;;18.60;41.72
11678;BME280;5895;41.950;24.372;2022-07-18T07:13:14;87593.94;;;18.69;41.70
11678;BME280;5895;41.950;24.372;2022-07-18T07:15:42;87596.34;;;18.81;41.67
11678;BME280;5895;41.950;24.372;2022-07-18T07:18:09;87597.44;;;18.90;41.82
11678;BME280;5895;41.950;24.372;2022-07-18T07:20:37;87588.81;;;19.00;41.95
11678;BME280;5895;41.950;24.372;2022-07-18T07:23:06;87598.31;;;19.06;41.40
11678;BME280;5895;41.950;24.372;2022-07-18T07:25:35;87592.84;;;19.18;41.16
11678;BME280;5895;41.950;24.372;2022-07-18T07:28:04;87594.97;;;19.21;41.57
11678;BME280;5895;41.950;24.372;2022-07-18T07:30:33;87596.56;;;19.27;41.78
11678;BME280;5895;41.950;24.372;2022-07-18T07:33:01;87596.59;;;19.32;41.55
11678;BME280;5895;41.950;24.372;2022-07-18T07:35:29;87595.56;;;19.38;41.39
11678;BME280;5895;41.950;24.372;2022-07-18T07:37:58;87588.75;;;19.47;41.07
11678;BME280;5895;41.950;24.372;2022-07-18T07:40:28;87594.03;;;19.47;41.12
11678;BME280;5895;41.950;24.372;2022-07-18T07:43:05;87588.75;;;19.58;39.64
11678;BME280;5895;41.950;24.372;2022-07-18T07:45:32;87598.03;;;19.60;41.55
11678;BME280;5895;41.950;24.372;2022-07-18T07:48:00;87587.25;;;19.72;41.56
11678;BME280;5895;41.950;24.372;2022-07-18T07:50:27;87593.59;;;19.76;41.40
11678;BME280;5895;41.950;24.372;2022-07-18T07:52:55;87584.66;;;19.82;41.54
11678;BME280;5895;41.950;24.372;2022-07-18T07:55:23;87595.72;;;19.89;41.35
11678;BME280;5895;41.950;24.372;2022-07-18T07:57:52;87593.63;;;20.01;40.84
11678;BME280;5895;41.950;24.372;2022-07-18T08:00:19;87588.63;;;20.05;41.26
11678;BME280;5895;41.950;24.372;2022-07-18T08:02:52;87591.53;;;20.14;40.23
11678;BME280;5895;41.950;24.372;2022-07-18T08:05:19;87591.78;;;20.17;41.08
11678;BME280;5895;41.950;24.372;2022-07-18T08:07:47;87591.53;;;20.24;40.95
11678;BME280;5895;41.950;24.372;2022-07-18T08:10:14;87595.50;;;20.26;41.25
11678;BME280;5895;41.950;24.372;2022-07-18T08:12:42;87598.94;;;20.32;40.98
11678;BME280;5895;41.950;24.372;2022-07-18T08:15:11;87593.13;;;20.40;40.68
11678;BME280;5895;41.950;24.372;2022-07-18T08:17:39;87602.63;;;20.46;40.66
11678;BME280;5895;41.950;24.372;2022-07-18T08:20:07;87591.56;;;20.49;40.85
11678;BME280;5895;41.950;24.372;2022-07-18T08:22:35;87588.13;;;20.59;40.88
11678;BME280;5895;41.950;24.372;2022-07-18T08:25:03;87592.88;;;20.67;40.80
11678;BME280;5895;41.950;24.372;2022-07-18T08:27:30;87589.44;;;20.72;40.83
11678;BME280;5895;41.950;24.372;2022-07-18T08:29:57;87590.47;;;20.81;40.76
11678;BME280;5895;41.950;24.372;2022-07-18T08:32:26;87597.31;;;20.92;39.65
11678;BME280;5895;41.950;24.372;2022-07-18T08:34:54;87592.00;;;21.02;40.17
11678;BME280;5895;41.950;24.372;2022-07-18T08:37:21;87604.13;;;21.13;40.13
11678;BME280;5895;41.950;24.372;2022-07-18T08:39:48;87594.59;;;21.23;40.15
11678;BME280;5895;41.950;24.372;2022-07-18T08:42:16;87598.56;;;21.30;40.10
11678;BME280;5895;41.950;24.372;2022-07-18T08:44:46;87604.59;;;21.41;39.93
11678;BME280;5895;41.950;24.372;2022-07-18T08:47:15;87611.16;;;21.49;39.58
11678;BME280;5895;41.950;24.372;2022-07-18T08:49:46;87606.13;;;21.57;39.31
11678;BME280;5895;41.950;24.372;2022-07-18T08:52:14;87607.41;;;21.65;39.42
11678;BME280;5895;41.950;24.372;2022-07-18T08:54:42;87616.06;;;21.76;39.55
11678;BME280;5895;41.950;24.372;2022-07-18T08:57:09;87611.25;;;21.83;39.63
11678;BME280;5895;41.950;24.372;2022-07-18T08:59:37;87602.78;;;21.91;39.52
11678;BME280;5895;41.950;24.372;2022-07-18T09:02:06;87617.06;;;21.90;39.34
11678;BME280;5895;41.950;24.372;2022-07-18T09:04:35;87612.78;;;21.94;39.36
11678;BME280;5895;41.950;24.372;2022-07-18T09:07:05;87613.00;;;22.08;38.70
11678;BME280;5895;41.950;24.372;2022-07-18T09:09:34;87611.66;;;22.15;39.34
11678;BME280;5895;41.950;24.372;2022-07-18T09:12:03;87613.97;;;22.22;39.11
11678;BME280;5895;41.950;24.372;2022-07-18T09:14:33;87619.00;;;22.29;38.51
11678;BME280;5895;41.950;24.372;2022-07-18T09:17:03;87606.50;;;22.39;39.46
11678;BME280;5895;41.950;24.372;2022-07-18T09:19:31;87607.25;;;22.45;39.34
11678;BME280;5895;41.950;24.372;2022-07-18T09:22:13;87611.44;;;22.51;36.36
11678;BME280;5895;41.950;24.372;2022-07-18T09:24:59;87616.06;;;22.64;36.55
11678;BME280;5895;41.950;24.372;2022-07-18T09:27:31;87619.72;;;22.74;36.82
11678;BME280;5895;41.950;24.372;2022-07-18T09:30:13;87624.44;;;22.77;36.06
11678;BME280;5895;41.950;24.372;2022-07-18T09:32:43;87616.94;;;22.89;38.33
11678;BME280;5895;41.950;24.372;2022-07-18T09:35:11;87624.22;;;22.73;38.35
11678;BME280;5895;41.950;24.372;2022-07-18T09:37:41;87621.75;;;22.82;37.39
11678;BME280;5895;41.950;24.372;2022-07-18T09:40:21;87622.03;;;22.80;36.84
11678;BME280;5895;41.950;24.372;2022-07-18T09:42:49;87625.00;;;22.74;37.22
11678;BME280;5895;41.950;24.372;2022-07-18T09:45:22;87632.34;;;22.82;35.78
11678;BME280;5895;41.950;24.372;2022-07-18T09:47:52;87634.91;;;22.97;38.37
11678;BME280;5895;41.950;24.372;2022-07-18T09:50:22;87631.31;;;23.12;37.26
11678;BME280;5895;41.950;24.372;2022-07-18T09:53:07;87619.28;;;23.25;33.40
11678;BME280;5895;41.950;24.372;2022-07-18T09:55:35;87622.44;;;23.27;37.73
11678;BME280;5895;41.950;24.372;2022-07-18T09:58:05;87621.97;;;23.19;36.66
11678;BME280;5895;41.950;24.372;2022-07-18T10:00:35;87622.31;;;23.13;37.62
11678;BME280;5895;41.950;24.372;2022-07-18T10:03:04;87617.13;;;23.27;38.00
11678;BME280;5895;41.950;24.372;2022-07-18T10:05:33;87629.59;;;23.50;37.95
11678;BME280;5895;41.950;24.372;2022-07-18T10:08:03;87623.09;;;23.66;37.33
11678;BME280;5895;41.950;24.372;2022-07-18T10:10:32;87625.06;;;23.80;37.27
11678;BME280;5895;41.950;24.372;2022-07-18T10:13:01;87619.91;;;23.88;37.42
11678;BME280;5895;41.950;24.372;2022-07-18T10:15:30;87614.34;;;23.90;37.04
11678;BME280;5895;41.950;24.372;2022-07-18T10:17:58;87620.88;;;23.97;37.34
11678;BME280;5895;41.950;24.372;2022-07-18T10:20:29;87620.97;;;24.11;36.86
11678;BME280;5895;41.950;24.372;2022-07-18T10:23:03;87609.34;;;24.07;35.40
11678;BME280;5895;41.950;24.372;2022-07-18T10:25:35;87607.50;;;24.08;36.89
11678;BME280;5895;41.950;24.372;2022-07-18T10:28:08;87612.56;;;24.04;34.01
11678;BME280;5895;41.950;24.372;2022-07-18T10:30:42;87607.47;;;23.89;36.60
11678;BME280;5895;41.950;24.372;2022-07-18T10:33:41;87601.38;;;23.88;33.65
11678;BME280;5895;41.950;24.372;2022-07-18T10:36:11;87612.88;;;23.79;37.13
11678;BME280;5895;41.950;24.372;2022-07-18T10:39:04;87610.22;;;23.79;33.77
11678;BME280;5895;41.950;24.372;2022-07-18T10:44:43;87611.72;;;24.09;37.35
11678;BME280;5895;41.950;24.372;2022-07-18T10:47:12;87602.34;;;24.16;35.61
11678;BME280;5895;41.950;24.372;2022-07-18T10:50:02;87603.53;;;24.05;31.39
11678;BME280;5895;41.950;24.372;2022-07-18T10:52:57;87600.88;;;24.05;31.29
11678;BME280;5895;41.950;24.372;2022-07-18T10:55:29;87615.53;;;24.21;34.76
11678;BME280;5895;41.950;24.372;2022-07-18T10:58:22;87604.22;;;24.53;33.92
11678;BME280;5895;41.950;24.372;2022-07-18T11:00:52;87594.53;;;24.63;32.53
11678;BME280;5895;41.950;24.372;2022-07-18T11:03:27;87597.41;;;24.66;35.63
11678;BME280;5895;41.950;24.372;2022-07-18T11:05:56;87593.31;;;24.55;36.16
11678;BME280;5895;41.950;24.372;2022-07-18T11:08:23;87595.94;;;24.74;36.35
11678;BME280;5895;41.950;24.372;2022-07-18T11:11:08;87593.28;;;24.93;29.81
11678;BME280;5895;41.950;24.372;2022-07-18T11:13:39;87602.00;;;25.12;35.00
11678;BME280;5895;41.950;24.372;2022-07-18T11:16:09;87591.59;;;25.29;34.75
11678;BME280;5895;41.950;24.372;2022-07-18T11:19:16;87598.50;;;25.58;29.91
11678;BME280;5895;41.950;24.372;2022-07-18T11:21:45;87593.59;;;25.65;34.83
11678;BME280;5895;41.950;24.372;2022-07-18T11:24:13;87593.28;;;25.53;35.56
11678;BME280;5895;41.950;24.372;2022-07-18T11:26:45;87592.53;;;25.66;33.43
11678;BME280;5895;41.950;24.372;2022-07-18T11:29:15;87585.84;;;25.82;33.99
11678;BME280;5895;41.950;24.372;2022-07-18T11:31:45;87597.97;;;25.89;35.48
11678;BME280;5895;41.950;24.372;2022-07-18T11:34:13;87593.03;;;25.96;34.87
11678;BME280;5895;41.950;24.372;2022-07-18T11:36:42;87588.53;;;25.82;34.95
11678;BME280;5895;41.950;24.372;2022-07-18T11:39:11;87588.09;;;25.62;34.81
11678;BME280;5895;41.950;24.372;2022-07-18T11:41:40;87594.56;;;25.69;35.44
11678;BME280;5895;41.950;24.372;2022-07-18T11:44:17;87584.56;;;25.94;30.99
11678;BME280;5895;41.950;24.372;2022-07-18T11:46:47;87588.09;;;26.03;35.14
11678;BME280;5895;41.950;24.372;2022-07-18T11:49:14;87585.13;;;26.18;35.26
11678;BME280;5895;41.950;24.372;2022-07-18T11:51:44;87585.31;;;26.22;34.09
11678;BME280;5895;41.950;24.372;2022-07-18T11:54:13;87580.69;;;26.27;34.99
11678;BME280;5895;41.950;24.372;2022-07-18T11:56:50;87578.78;;;26.42;35.16
11678;BME280;5895;41.950;24.372;2022-07-18T11:59:19;87577.59;;;26.48;34.45
11678;BME280;5895;41.950;24.372;2022-07-18T12:01:47;87576.00;;;26.47;34.36
11678;BME280;5895;41.950;24.372;2022-07-18T12:04:18;87583.91;;;26.24;34.90
11678;BME280;5895;41.950;24.372;2022-07-18T12:09:29;87569.31;;;26.49;34.63
11678;BME280;5895;41.950;24.372;2022-07-18T12:11:56;87575.59;;;26.53;35.33
11678;BME280;5895;41.950;24.372;2022-07-18T12:14:35;87570.03;;;26.63;33.77
11678;BME280;5895;41.950;24.372;2022-07-18T12:17:03;87573.59;;;26.59;34.64
11678;BME280;5895;41.950;24.372;2022-07-18T12:19:33;87581.25;;;26.74;32.89
11678;BME280;5895;41.950;24.372;2022-07-18T12:22:05;87570.38;;;26.84;31.47
11678;BME280;5895;41.950;24.372;2022-07-18T12:24:35;87571.16;;;26.85;34.61
11678;BME280;5895;41.950;24.372;2022-07-18T12:27:19;87573.44;;;26.78;28.02
11678;BME280;5895;41.950;24.372;2022-07-18T12:29:59;87567.47;;;26.72;30.56
11678;BME280;5895;41.950;24.372;2022-07-18T12:32:35;87568.78;;;26.83;34.57
11678;BME280;5895;41.950;24.372;2022-07-18T12:35:04;87574.66;;;26.94;34.64
11678;BME280;5895;41.950;24.372;2022-07-18T12:37:32;87568.72;;;26.97;34.65
11678;BME280;5895;41.950;24.372;2022-07-18T12:40:01;87565.75;;;26.99;32.94
11678;BME280;5895;41.950;24.372;2022-07-18T12:42:31;87568.28;;;26.81;34.36
11678;BME280;5895;41.950;24.372;2022-07-18T12:45:00;87558.31;;;26.64;31.55
11678;BME280;5895;41.950;24.372;2022-07-18T12:47:28;87562.00;;;26.55;34.50
11678;BME280;5895;41.950;24.372;2022-07-18T12:49:55;87562.41;;;26.71;35.00
11678;BME280;5895;41.950;24.372;2022-07-18T12:52:23;87569.59;;;26.84;34.63
11678;BME280;5895;41.950;24.372;2022-07-18T12:54:50;87565.38;;;26.92;34.27
11678;BME280;5895;41.950;24.372;2022-07-18T12:57:18;87562.69;;;26.83;34.56
11678;BME280;5895;41.950;24.372;2022-07-18T12:59:46;87556.31;;;26.93;34.78
11678;BME280;5895;41.950;24.372;2022-07-18T13:02:16;87556.31;;;26.93;32.97
11678;BME280;5895;41.950;24.372;2022-07-18T13:04:43;87562.13;;;26.95;34.81
11678;BME280;5895;41.950;24.372;2022-07-18T13:07:11;87561.63;;;26.93;34.53
11678;BME280;5895;41.950;24.372;2022-07-18T13:09:38;87548.03;;;26.72;34.72
11678;BME280;5895;41.950;24.372;2022-07-18T13:12:06;87552.69;;;26.44;34.65
11678;BME280;5895;41.950;24.372;2022-07-18T13:14:33;87553.97;;;26.32;34.92
11678;BME280;5895;41.950;24.372;2022-07-18T13:17:01;87547.66;;;26.28;35.33